Thunder Lake, Minnesota
Current Conditions -  °F | °C
As of 2:16 PM on Friday 19 Dec 2014 (Local Time) from KXVG Reporting Station
Haze Haze  
Wind Chill: 14°   Ceiling: 500
Heat Index: 23°   Visibility: 1.7mi
Dew Point: 21°   Wind: 8mph
Humidity: 93%   Direction: 140°SE
Pressure: 30.1"   Gusts: NA
Location:  47.0973°N, 93.9173°W
Report Text: KXVG 192016Z AUTO 14007KT 1 3/4SM BR OVC005 M05/M06 A3010 RMK AO2
Loading
Personal Weather Stations






























Interactive Weather Map New forecast layout! Learn more

10-Day Weather Forecast

Advertisements
Track Severe Weather on mobile